Last 100 IPOs

Company Symbol Industry Offer Date Shares (millions) Offer Price 1st Day Close Current Price Return SCOOP Rating
Ranger Energy Services RNGR Oil & Gas 8/11/2017 5.9 $14.50 $14.22 $14.01 -3.38% S/O
YogaWorks YOGA Consumer Services 8/11/2017 7.3 $5.50 $4.85 $4.41 -19.82% S/O
Venator Materials PLC VNTR Basic Materials 8/3/2017 22.7 $20.00 $20.65 $18.99 -5.05% S/O
Clementia Pharmaceuticals CMTA Health Care 8/2/2017 8.0 $15.00 $16.35 $16.06 7.07% S/O
Newater Technology NEWA Consumer Services 7/28/2017 1.4 $5.00 $8.93 $9.19 83.80% S/O
Redfin RDFN Financials 7/28/2017 9.2 $15.00 $21.70 $27.19 81.27% S/O
Sienna Biopharmaceuticals SNNA Health Care 7/27/2017 4.3 $15.00 $19.25 $19.40 29.33% S/O
RBB Bancorp RBB Financials 7/26/2017 3.8 $23.00 $23.35 $21.91 -4.74% S/O
PetIQ PETQ Health Care 7/21/2017 6.3 $16.00 $23.32 $22.22 38.88% S/O
Calyxt CLXT Basic Materials 7/20/2017 7.0 $8.00 $11.25 $12.07 50.88% S/O
Kala Pharmaceuticals KALA Health Care 7/20/2017 6.0 $15.00 $18.49 $22.35 49.00% S/O
TPG RE Finance Trust TRTX Financials 7/20/2017 11.0 $20.00 $19.58 $19.67 -1.65% S/O
Akcea Therapeutics AKCA Health Care 7/14/2017 15.6 $8.00 $9.48 $14.35 79.38% S/O
Co-Diagnostics CODX Health Care 7/12/2017 1.2 $6.00 $5.81 $5.00 -16.67% S/O
Byline Bancorp BY Financials 6/30/2017 5.7 $19.00 $20.05 $21.15 11.32% S/O
Aileron Therapeutics ALRN Health Care 6/29/2017 3.8 $15.00 $10.80 $12.21 -18.60% S/O
Blue Apron Holdings APRN Consumer Goods 6/29/2017 30.0 $10.00 $10.00 $5.50 -45.00% S/O
Dova Pharmaceuticals DOVA Health Care 6/29/2017 4.4 $17.00 $19.81 $26.21 54.18% S/O
Avenue Therapeutics ATXI Health Care 6/27/2017 5.5 $6.00 $8.25 $6.77 12.83% S/O
Esquire Financial Holdings ESQ Financials 6/27/2017 2.4 $14.00 $15.25 $15.83 13.07% S/O
Granite Point Mortgage Trust GPMT Financials 6/23/2017 10.0 $19.50 $19.00 $19.21 -1.49% S/O
Altice USA ATUS Telecommunications 6/22/2017 63.9 $30.00 $32.71 $30.55 1.83% S/O
Safety, Income and Growth SAFE Financials 6/22/2017 10.3 $20.00 $19.00 $19.41 -2.95% S/O
SG Blocks SGBX Industrials 6/22/2017 1.5 $5.00 $4.92 $4.17 -16.60% S/O
Athenex ATNX Health Care 6/14/2017 6.0 $11.00 $12.56 $16.61 51.00% S/O
Plymouth Industrial REIT PLYM Financials 6/9/2017 2.9 $19.00 $18.39 $17.84 -6.11% S/O
ShotSpotter SSTI Technology 6/7/2017 2.8 $11.00 $14.38 $12.11 10.09% S/O
Appian APPN Technology 5/25/2017 6.3 $12.00 $15.01 $20.61 71.75% S/O
WideOpenWest WOW Telecommunications 5/25/2017 18.2 $17.00 $16.50 $16.17 -4.88% S/O
SMART Global Holdings SGH Technology 5/24/2017 5.3 $11.00 $13.45 $19.39 76.27% S/O
Bright Scholar Education Holdings BEDU Consumer Services 5/18/2017 15.0 $10.50 $13.40 $16.55 57.62% S/O
G1 Therapeutics GTHX Health Care 5/17/2017 7.0 $15.00 $15.00 $13.95 -7.00% S/O
A.S.V. ASV Industrials 5/12/2017 3.8 $7.00 $7.85 $7.80 11.43% S/O
Gardner Denver Holdings GDI Consumer Goods 5/12/2017 41.3 $20.00 $21.10 $22.75 13.75% S/O
Solaris Oilfield Infrastructure SOI 5/12/2017 10.1 $12.00 $11.55 $12.39 3.25% S/O
Veritone VERI Technology 5/12/2017 2.5 $15.00 $13.07 $8.24 -45.07% S/O
Five Point Holdings FPH Financials 5/10/2017 21.0 $14.00 $15.04 $14.25 1.79% S/O
Guaranty Bancshares GNTY Financials 5/9/2017 2.0 $27.00 $30.10 $30.53 13.07% S/O
KKR Real Estate Finance Trust KREF Financials 5/5/2017 10.3 $20.50 $22.13 $20.19 -1.51% S/O
Ovid Therapeutics OVID Health Care 5/5/2017 5.0 $15.00 $12.25 $6.45 -57.00% S/O
Antero Resources Midstream Management AMGP Oil & Gas 5/4/2017 37.3 $23.50 $22.00 $18.63 -20.72% S/O
Biohaven Pharmaceutical Holding BHVN Health Care 5/4/2017 9.9 $17.00 $17.50 $25.64 50.82% S/O
UroGen Pharma Ltd. URGN Health Care 5/4/2017 4.5 $13.00 $13.98 $17.62 35.54% S/O
Carvana CVNA Consumer Services 4/28/2017 15.0 $15.00 $11.10 $15.15 1.00% S/O
China Rapid Finance Limited XRF Financials 4/28/2017 10.0 $6.00 $6.40 $6.89 14.83% S/O
Cloudera CLDR Technology 4/28/2017 15.0 $15.00 $18.10 $17.90 19.33% S/O
Emerald Expositions Events EEX Consumer Services 4/28/2017 15.5 $17.00 $19.50 $21.80 28.24% S/O
NCS Multistage Holdings NCSM Oil & Gas 4/28/2017 9.5 $17.00 $19.50 $21.61 27.12% S/O
Zymeworks ZYME Health Care 4/28/2017 4.5 $13.00 $13.00 $7.64 -41.23% S/O
Floor & Decor Holdings FND Consumer Goods 4/27/2017 8.8 $21.00 $32.05 $34.31 63.38% S/O
Select Energy Services WTTR Oil & Gas 4/21/2017 8.7 $14.00 $14.02 $14.24 1.71% S/O
Cadence Bancorporation CADE Financials 4/13/2017 7.5 $20.00 $0.00 $21.47 7.35% S/O
Tocagen TOCA Health Care 4/13/2017 8.5 $10.00 $12.45 $12.23 22.30% S/O
Warrior Met Coal HCC Basic Materials 4/13/2017 16.7 $19.00 $18.00 $24.62 29.58% S/O
Yext YEXT Technology 4/13/2017 10.5 $11.00 $13.41 $13.31 21.00% S/O
Netshoes (Cayman) Ltd. NETS Consumer Goods 4/12/2017 8.3 $18.00 $16.10 $16.18 -10.11% S/O
Azul S.A. AZUL Consumer Services 4/11/2017 28.5 $20.06 $21.50 $25.94 29.31% S/O
Okta OKTA Technology 4/7/2017 11.0 $17.00 $23.51 $24.58 44.59% S/O
Elevate Credit ELVT Financials 4/6/2017 12.4 $6.50 $7.76 $7.02 8.00% S/O
Schneider National SNDR Industrials 4/6/2017 29.0 $19.00 $19.00 $21.30 12.11% S/O
Hess Midstream Partners LP HESM Oil & Gas 4/5/2017 14.8 $23.00 $25.60 $19.99 -13.09% S/O
Alteryx AYX Technology 3/24/2017 9.0 $14.00 $15.50 $22.93 63.79% S/O
MuleSoft MULE Technology 3/17/2017 13.0 $17.00 $24.75 $20.55 20.88% S/O
ProPetro Holding PUMP Oil & Gas 3/17/2017 25.0 $14.00 $14.50 $11.38 -18.71% S/O
Canada Goose Holdings GOOS Consumer Goods 3/16/2017 20.0 $12.78 $16.08 $18.73 46.56% S/O
Ardagh Group S.A. ARD Industrials 3/15/2017 16.2 $19.00 $22.91 $21.23 11.74% S/O
Presidio, Inc. PSDO Technology 3/10/2017 16.7 $14.00 $14.25 $13.39 -4.36% S/O
BeyondSpring BYSI Health Care 3/9/2017 0.2 $20.00 $16.80 $39.50 97.50% S/O
J.Jill JILL Consumer Goods 3/9/2017 11.7 $13.00 $12.65 $10.73 -17.46% S/O
Snap SNAP Technology 3/2/2017 200.0 $17.00 $24.48 $13.12 -22.82% S/O
Hamilton Lane HLNE Financials 3/1/2017 11.9 $16.00 $18.02 $22.92 43.25% S/O
Clipper Realty CLPR Financials 2/10/2017 5.7 $13.50 $13.50 $10.40 -22.96% S/O
Foundation Building Materials FBM Consumer Services 2/10/2017 12.8 $14.00 $15.50 $11.92 -14.86% S/O
Sachem Capital SACH Financials 2/10/2017 2.6 $5.00 $5.04 $4.85 -3.00% S/O
Kimbell Royalty Partners, LP KRP Oil & Gas 2/3/2017 5.0 $18.00 $20.64 $15.97 -11.28% S/O
Ramaco Resources METC Basic Materials 2/3/2017 6.0 $13.50 $13.55 $6.70 -50.37% S/O
Invitation Homes INVH Financials 2/1/2017 77.0 $20.00 $20.00 $23.35 16.75% S/O
Laureate Education LAUR Consumer Services 2/1/2017 35.0 $14.00 $13.25 $14.59 4.21% S/O
Jagged Peak Energy JAG Oil & Gas 1/27/2017 31.6 $15.00 $14.33 $12.06 -19.60% S/O
JELD-WEN Holding JELD Basic Materials 1/27/2017 25.0 $23.00 $26.12 $28.66 24.61% S/O
Jounce Therapeutics JNCE Health Care 1/27/2017 6.5 $16.00 $17.25 $14.14 -11.63% S/O
REV Group REVG Consumer Goods 1/27/2017 12.5 $22.00 $25.00 $24.28 10.36% S/O
AnaptysBio ANAB Health Care 1/26/2017 5.0 $15.00 $17.00 $21.26 41.73% S/O
ObsEva SA OBSV Health Care 1/26/2017 6.5 $15.00 $11.65 $7.69 -48.73% S/O
Keane Group FRAC Oil & Gas 1/20/2017 26.8 $19.00 $21.65 $13.16 -30.74% S/O
trivago N.V. TRVG Technology 12/16/2016 26.1 $11.00 $11.85 $15.90 44.55% S/O
WildHorse Resource Development WRD Oil & Gas 12/14/2016 27.5 $15.00 $15.06 $11.44 -23.73% S/O
Athene Holding Ltd. ATH Financials 12/9/2016 27.0 $40.00 $44.05 $52.84 32.10% S/O
Ichor Holdings, Ltd. ICHR Technology 12/9/2016 5.9 $9.00 $9.77 $19.82 120.22% S/O
SenesTech SNES Basic Materials 12/8/2016 1.9 $8.00 $8.16 $2.85 -64.38% S/O
Polar Power POLA Industrials 12/7/2016 2.4 $7.00 $9.00 $4.33 -38.14% S/O
Innovative Industrial Properties IIPR Financials 12/1/2016 3.4 $20.00 $19.15 $16.83 -15.85% S/O
Smart Sand SND Basic Materials 11/4/2016 11.7 $11.00 $10.99 $5.06 -54.00% S/O
GDS Holdings Ltd. GDS Technology 11/2/2016 19.3 $10.00 $10.41 $9.13 -8.70% S/O
Acushnet Holdings GOLF Consumer Goods 10/28/2016 19.3 $17.00 $17.95 $16.16 -4.94% S/O
BlackLine BL Technology 10/28/2016 8.6 $17.00 $23.70 $29.80 75.29% S/O
Quantenna Communications QTNA Technology 10/28/2016 6.7 $16.00 $15.50 $17.79 11.19% S/O
Myovant Sciences Ltd. MYOV Health Care 10/27/2016 14.5 $15.00 $13.26 $9.93 -33.80% S/O
ZTO Express (Cayman) ZTO Industrials 10/27/2016 72.1 $19.50 $16.57 $13.45 -31.03% S/O
Ra Pharmaceuticals RARX Health Care 10/26/2016 7.1 $13.00 $13.00 $15.16 16.62% S/O